createdAt,value
2017-12-30T00:01:26.230Z,23.67
2017-12-30T00:03:53.810Z,21.00
2017-12-30T00:06:21.870Z,15.70
2017-12-30T00:08:49.457Z,16.07
2017-12-30T00:11:17.037Z,17.77
2017-12-30T00:13:44.657Z,15.43
2017-12-30T00:16:12.210Z,12.67
2017-12-30T00:18:39.805Z,13.10
2017-12-30T00:21:07.510Z,7.90
2017-12-30T00:23:35.068Z,5.03
2017-12-30T00:26:02.669Z,5.73
2017-12-30T00:28:30.303Z,9.87
2017-12-30T00:30:57.859Z,7.10
2017-12-30T00:33:25.459Z,11.00
2017-12-30T00:35:53.103Z,9.37
2017-12-30T00:38:20.648Z,8.73
2017-12-30T00:40:48.197Z,5.70
2017-12-30T00:43:15.845Z,5.17
2017-12-30T00:45:43.413Z,3.57
2017-12-30T00:48:11.006Z,3.40
2017-12-30T00:50:38.672Z,2.83
2017-12-30T00:53:06.587Z,3.50
2017-12-30T00:55:34.159Z,2.33
2017-12-30T00:58:01.787Z,5.00
2017-12-30T01:00:29.386Z,4.80
2017-12-30T01:02:56.945Z,5.43
2017-12-30T01:05:24.546Z,4.80
2017-12-30T01:07:52.110Z,5.43
2017-12-30T01:10:19.688Z,7.37
2017-12-30T01:12:47.257Z,9.80
2017-12-30T01:15:14.810Z,7.50
2017-12-30T01:17:42.374Z,6.53
2017-12-30T01:20:09.986Z,23.50
2017-12-30T01:22:37.647Z,8.23
2017-12-30T01:25:05.446Z,4.50
2017-12-30T01:27:33.005Z,2.80
2017-12-30T01:30:00.581Z,4.83
2017-12-30T01:32:28.124Z,2.50
2017-12-30T01:34:55.719Z,1.87
2017-12-30T01:37:23.277Z,0.83
2017-12-30T01:39:50.849Z,3.00
2017-12-30T01:42:18.450Z,1.37
2017-12-30T01:44:46.036Z,3.37
2017-12-30T01:47:13.597Z,3.40
2017-12-30T01:49:41.196Z,0.70
2017-12-30T01:52:08.753Z,8.80
2017-12-30T01:54:36.294Z,2.70
2017-12-30T01:57:03.910Z,2.90
2017-12-30T01:59:31.487Z,5.37
2017-12-30T02:01:59.083Z,11.07
2017-12-30T02:04:26.665Z,8.13
2017-12-30T02:06:54.201Z,3.30
2017-12-30T02:09:21.817Z,1.07
2017-12-30T02:11:49.395Z,1.23
2017-12-30T02:14:17.010Z,6.80
2017-12-30T02:16:44.598Z,3.63
2017-12-30T02:19:12.304Z,2.40
2017-12-30T02:21:39.929Z,1.03
2017-12-30T02:24:07.543Z,1.20
2017-12-30T02:26:35.070Z,2.00
2017-12-30T02:29:02.634Z,0.97
2017-12-30T02:31:30.250Z,1.37
2017-12-30T02:33:57.789Z,2.00
2017-12-30T02:36:25.327Z,1.30
2017-12-30T02:38:52.937Z,1.33
2017-12-30T02:41:20.643Z,4.47
2017-12-30T02:43:48.184Z,0.80
2017-12-30T02:46:16.665Z,1.43
2017-12-30T02:48:44.224Z,2.90
2017-12-30T02:51:11.794Z,1.90
2017-12-30T02:53:39.397Z,4.80
2017-12-30T02:56:07.492Z,8.10
2017-12-30T02:58:35.493Z,1.00
2017-12-30T03:01:03.477Z,7.23
2017-12-30T03:03:31.969Z,6.73
2017-12-30T03:05:59.528Z,4.23
2017-12-30T03:08:27.178Z,4.10
2017-12-30T03:10:54.768Z,5.70
2017-12-30T03:13:22.370Z,2.30
2017-12-30T03:15:49.957Z,11.37
2017-12-30T03:18:17.580Z,9.80
2017-12-30T03:20:45.180Z,40.80
2017-12-30T03:23:12.928Z,10.53
2017-12-30T03:25:40.580Z,13.67
2017-12-30T03:28:08.140Z,19.23
2017-12-30T03:30:35.707Z,13.10
2017-12-30T03:33:03.372Z,20.70
2017-12-30T03:35:30.935Z,6.80
2017-12-30T03:37:58.499Z,5.87
2017-12-30T03:40:26.135Z,3.80
2017-12-30T03:42:53.684Z,2.97
2017-12-30T03:45:21.220Z,5.17
2017-12-30T03:47:48.822Z,4.53
2017-12-30T03:50:16.413Z,6.63
2017-12-30T03:52:43.978Z,3.27
2017-12-30T03:55:11.771Z,5.13
2017-12-30T03:57:39.370Z,6.67
2017-12-30T04:00:06.961Z,24.63
2017-12-30T04:02:34.552Z,15.40
2017-12-30T04:05:02.117Z,7.47
2017-12-30T04:07:29.884Z,3.83
2017-12-30T04:09:57.500Z,3.63
2017-12-30T04:12:25.078Z,4.47
2017-12-30T04:14:52.652Z,4.87
2017-12-30T04:17:20.274Z,2.70
2017-12-30T04:19:47.851Z,5.50
2017-12-30T04:22:15.522Z,2.57
2017-12-30T04:24:43.128Z,1.60
2017-12-30T04:27:10.842Z,1.97
2017-12-30T04:29:38.400Z,4.87
2017-12-30T04:32:06.040Z,2.20
2017-12-30T04:34:33.634Z,4.00
2017-12-30T04:37:01.211Z,10.47
2017-12-30T04:42:00.586Z,12.63
2017-12-30T04:44:28.159Z,7.73
2017-12-30T04:46:55.798Z,7.80
2017-12-30T04:49:23.758Z,4.63
2017-12-30T04:51:51.356Z,2.90
2017-12-30T04:54:18.989Z,2.13
2017-12-30T04:56:46.552Z,2.40
2017-12-30T04:59:14.106Z,4.60
2017-12-30T05:01:41.733Z,2.10
2017-12-30T05:04:09.296Z,2.10
2017-12-30T05:06:36.851Z,2.70
2017-12-30T05:09:04.900Z,5.40
2017-12-30T05:11:32.472Z,4.77
2017-12-30T05:14:00.029Z,6.73
2017-12-30T05:16:27.598Z,4.53
2017-12-30T05:18:55.142Z,12.20
2017-12-30T05:21:22.721Z,6.13
2017-12-30T05:23:50.357Z,11.73
2017-12-30T05:26:17.917Z,8.00
2017-12-30T05:28:45.468Z,8.27
2017-12-30T05:31:13.059Z,5.57
2017-12-30T05:33:40.641Z,5.77
2017-12-30T05:36:08.319Z,11.40
2017-12-30T05:38:35.917Z,7.13
2017-12-30T05:41:03.499Z,6.30
2017-12-30T05:43:31.504Z,4.40
2017-12-30T05:45:59.206Z,3.50
2017-12-30T05:48:32.662Z,6.50
2017-12-30T05:51:00.289Z,8.57
2017-12-30T05:53:27.850Z,7.93
2017-12-30T05:55:55.411Z,7.10
2017-12-30T05:58:22.992Z,7.10
2017-12-30T06:00:50.568Z,9.10
2017-12-30T06:03:18.153Z,5.40
2017-12-30T06:05:45.745Z,6.73
2017-12-30T06:08:13.348Z,9.23
2017-12-30T06:10:40.921Z,9.70
2017-12-30T06:13:08.819Z,40.87
2017-12-30T06:15:36.420Z,28.57
2017-12-30T06:18:04.069Z,27.50
2017-12-30T06:20:31.683Z,18.87
2017-12-30T06:22:59.264Z,23.13
2017-12-30T06:25:26.970Z,22.93
2017-12-30T06:27:54.561Z,19.80
2017-12-30T06:30:22.127Z,24.63
2017-12-30T06:32:49.700Z,21.57
2017-12-30T06:35:17.293Z,19.93
2017-12-30T06:37:44.862Z,19.40
2017-12-30T06:40:12.530Z,9.53
2017-12-30T06:45:31.015Z,13.93
2017-12-30T06:47:58.620Z,8.40
2017-12-30T06:50:26.193Z,8.57
2017-12-30T06:52:53.771Z,9.90
2017-12-30T06:55:21.513Z,16.73
2017-12-30T07:00:39.760Z,9.80
2017-12-30T07:03:09.786Z,10.70
2017-12-30T07:05:37.349Z,9.23
2017-12-30T07:10:55.677Z,10.27
2017-12-30T07:13:29.237Z,8.53
2017-12-30T07:15:56.954Z,11.30
2017-12-30T07:18:24.612Z,8.77
2017-12-30T07:20:52.913Z,11.43
2017-12-30T07:23:20.492Z,11.20
2017-12-30T07:25:48.051Z,21.03
2017-12-30T07:28:15.592Z,11.27
2017-12-30T07:30:43.213Z,8.40
2017-12-30T07:33:12.991Z,9.47
2017-12-30T07:35:40.839Z,9.27
2017-12-30T07:38:08.399Z,7.80
2017-12-30T07:40:35.971Z,12.20
2017-12-30T07:43:05.011Z,10.27
2017-12-30T07:45:32.749Z,9.70
2017-12-30T07:48:01.312Z,9.20
2017-12-30T07:50:28.887Z,11.17
2017-12-30T07:52:56.457Z,10.63
2017-12-30T07:55:24.029Z,7.70
2017-12-30T07:57:51.597Z,6.77
2017-12-30T08:00:19.155Z,9.10
2017-12-30T08:02:46.730Z,8.47
2017-12-30T08:05:14.296Z,9.23
2017-12-30T08:07:41.870Z,6.77
2017-12-30T08:10:09.484Z,7.07
2017-12-30T08:12:37.044Z,5.20
2017-12-30T08:15:04.631Z,5.50
2017-12-30T08:17:32.271Z,6.30
2017-12-30T08:19:59.846Z,9.07
2017-12-30T08:22:27.691Z,8.23
2017-12-30T08:24:55.351Z,5.20
2017-12-30T08:27:22.886Z,6.20
2017-12-30T08:29:50.451Z,4.87
2017-12-30T08:32:18.074Z,4.10
2017-12-30T08:34:45.613Z,4.90
2017-12-30T08:37:13.160Z,5.70
2017-12-30T08:39:40.773Z,5.57
2017-12-30T08:42:08.510Z,7.47
2017-12-30T08:44:36.146Z,5.87
2017-12-30T08:47:03.747Z,5.87
2017-12-30T08:49:31.879Z,7.40
2017-12-30T08:51:59.740Z,3.87
2017-12-30T08:54:27.325Z,7.27
2017-12-30T08:56:54.920Z,6.13
2017-12-30T08:59:22.520Z,6.67
2017-12-30T09:01:50.079Z,4.70
2017-12-30T09:04:17.640Z,3.83
2017-12-30T09:06:45.256Z,5.50
2017-12-30T09:09:12.799Z,5.97
2017-12-30T09:11:40.358Z,14.23
2017-12-30T09:14:07.962Z,8.80
2017-12-30T09:16:35.563Z,13.97
2017-12-30T09:19:03.137Z,14.83
2017-12-30T09:21:30.684Z,13.23
2017-12-30T09:23:58.253Z,9.73
2017-12-30T09:26:25.800Z,6.30
2017-12-30T09:28:53.361Z,8.40
2017-12-30T09:31:20.961Z,6.53
2017-12-30T09:33:48.520Z,5.70
2017-12-30T09:36:16.037Z,4.30
2017-12-30T09:38:43.611Z,19.10
2017-12-30T09:41:11.165Z,16.13
2017-12-30T09:43:38.719Z,11.03
2017-12-30T09:46:06.266Z,13.80
2017-12-30T09:48:33.863Z,7.90
2017-12-30T09:51:01.463Z,6.23
2017-12-30T09:53:29.027Z,8.93
2017-12-30T09:55:56.611Z,6.73
2017-12-30T09:58:24.160Z,2.83
2017-12-30T10:00:51.706Z,9.33
2017-12-30T10:03:19.266Z,5.27
2017-12-30T10:05:46.824Z,10.93
2017-12-30T10:08:14.396Z,18.30
2017-12-30T10:10:41.927Z,15.53
2017-12-30T10:13:09.559Z,125.20
2017-12-30T10:15:37.130Z,11.73
2017-12-30T10:18:05.080Z,5.03
2017-12-30T10:20:32.671Z,9.13
2017-12-30T10:23:00.241Z,10.47
2017-12-30T10:25:27.790Z,8.40
2017-12-30T10:27:55.340Z,9.83
2017-12-30T10:30:23.004Z,6.20
2017-12-30T10:32:50.570Z,7.73
2017-12-30T10:35:18.187Z,9.77
2017-12-30T10:37:45.741Z,6.20
2017-12-30T10:40:13.299Z,7.33
2017-12-30T10:42:40.873Z,9.33
2017-12-30T10:45:08.431Z,6.87
2017-12-30T10:47:36.072Z,7.00
2017-12-30T10:50:03.640Z,9.73
2017-12-30T10:52:31.181Z,4.43
2017-12-30T10:54:58.769Z,7.87
2017-12-30T10:57:26.363Z,12.57
2017-12-30T10:59:54.044Z,12.43
2017-12-30T11:02:21.589Z,11.23
2017-12-30T11:04:49.294Z,14.10
2017-12-30T11:07:16.855Z,5.33
2017-12-30T11:09:44.413Z,13.17
2017-12-30T11:12:11.970Z,9.30
2017-12-30T11:14:40.769Z,10.57
2017-12-30T11:17:08.315Z,10.37
2017-12-30T11:19:35.867Z,13.20
2017-12-30T11:22:03.466Z,8.20
2017-12-30T11:24:31.023Z,9.70
2017-12-30T11:26:59.322Z,12.17
2017-12-30T11:29:26.866Z,15.37
2017-12-30T11:31:54.417Z,17.97
2017-12-30T11:34:21.975Z,19.97
2017-12-30T11:36:49.558Z,23.87
2017-12-30T11:39:17.141Z,19.47
2017-12-30T11:41:44.764Z,37.03
2017-12-30T11:44:12.362Z,61.60
2017-12-30T11:46:40.040Z,24.80
2017-12-30T11:49:07.694Z,16.77
2017-12-30T11:51:35.378Z,14.77
2017-12-30T11:54:05.195Z,10.20
2017-12-30T11:56:32.926Z,20.93
2017-12-30T11:59:00.457Z,8.23
2017-12-30T12:01:28.009Z,13.37
2017-12-30T12:03:55.613Z,4.67
2017-12-30T12:06:24.005Z,18.30
2017-12-30T12:08:51.560Z,40.73
2017-12-30T12:11:19.162Z,12.40
2017-12-30T12:13:46.717Z,5.87
2017-12-30T12:16:14.254Z,6.73
2017-12-30T12:18:41.852Z,3.17
2017-12-30T12:21:09.582Z,4.90
2017-12-30T12:23:37.174Z,4.20
2017-12-30T12:26:04.757Z,6.37
2017-12-30T12:28:32.321Z,10.80
2017-12-30T12:30:59.864Z,7.97
2017-12-30T12:33:27.443Z,10.80
2017-12-30T12:35:55.018Z,4.23
2017-12-30T12:38:22.581Z,10.10
2017-12-30T12:40:50.145Z,8.17
2017-12-30T12:43:17.707Z,9.63
2017-12-30T12:45:45.259Z,10.33
2017-12-30T12:48:12.843Z,10.80
2017-12-30T12:50:40.428Z,2.80
2017-12-30T12:53:08.151Z,6.67
2017-12-30T12:55:35.846Z,5.13
2017-12-30T12:58:03.409Z,4.67
2017-12-30T13:00:31.025Z,14.40
2017-12-30T13:02:58.586Z,6.67
2017-12-30T13:05:26.141Z,4.60
2017-12-30T13:07:53.746Z,4.47
2017-12-30T13:10:21.321Z,10.97
2017-12-30T13:12:48.923Z,7.97
2017-12-30T13:15:16.509Z,6.93
2017-12-30T13:17:44.064Z,6.50
2017-12-30T13:20:11.759Z,3.47
2017-12-30T13:22:39.305Z,3.60
2017-12-30T13:25:06.842Z,3.47
2017-12-30T13:27:34.381Z,4.20
2017-12-30T13:30:02.011Z,2.40
2017-12-30T13:32:29.621Z,8.83
2017-12-30T13:34:57.192Z,10.33
2017-12-30T13:37:24.729Z,10.63
2017-12-30T13:39:52.293Z,7.73
2017-12-30T13:42:19.971Z,6.67
2017-12-30T13:44:47.518Z,3.53
2017-12-30T13:47:15.328Z,3.20
2017-12-30T13:49:42.889Z,9.17
2017-12-30T13:52:10.460Z,2.70
2017-12-30T13:54:38.037Z,3.70
2017-12-30T13:57:05.597Z,7.20
2017-12-30T13:59:33.138Z,7.70
2017-12-30T14:02:00.701Z,4.03
2017-12-30T14:04:28.259Z,8.77
2017-12-30T14:06:55.801Z,3.93
2017-12-30T14:09:23.478Z,3.43
2017-12-30T14:11:51.012Z,5.30
2017-12-30T14:14:18.821Z,12.40
2017-12-30T14:16:46.382Z,12.97
2017-12-30T14:19:13.939Z,14.77
2017-12-30T14:21:41.551Z,16.03
2017-12-30T14:24:09.102Z,19.27
2017-12-30T14:26:36.681Z,10.13
2017-12-30T14:29:04.272Z,13.80
2017-12-30T14:31:33.425Z,14.30
2017-12-30T14:34:00.980Z,12.37
2017-12-30T14:36:28.538Z,15.30
2017-12-30T14:38:56.130Z,4.65
2017-12-30T14:41:23.667Z,6.27
2017-12-30T14:43:51.192Z,3.27
2017-12-30T14:46:18.787Z,3.60
2017-12-30T14:48:46.356Z,5.07
2017-12-30T14:51:13.920Z,3.90
2017-12-30T14:56:32.276Z,6.47
2017-12-30T14:58:59.880Z,2.40
2017-12-30T15:01:27.424Z,3.37
2017-12-30T15:03:55.024Z,3.03
2017-12-30T15:06:22.657Z,7.83
2017-12-30T15:08:50.206Z,4.03
2017-12-30T15:11:17.754Z,5.07
2017-12-30T15:13:45.335Z,7.37
2017-12-30T15:16:12.883Z,30.87
2017-12-30T15:18:40.499Z,14.63
2017-12-30T15:21:08.225Z,4.63
2017-12-30T15:23:35.788Z,9.00
2017-12-30T15:26:04.718Z,7.17
2017-12-30T15:28:32.269Z,8.87
2017-12-30T15:31:00.928Z,6.83
2017-12-30T15:33:28.574Z,16.67
2017-12-30T15:35:57.720Z,3.00
2017-12-30T15:38:25.295Z,13.10
2017-12-30T15:40:52.905Z,10.10
2017-12-30T15:43:20.445Z,9.10
2017-12-30T15:45:47.988Z,3.50
2017-12-30T15:48:15.602Z,9.10
2017-12-30T15:50:43.145Z,8.77
2017-12-30T15:53:10.711Z,6.23
2017-12-30T15:55:38.348Z,10.20
2017-12-30T15:58:05.883Z,10.93
2017-12-30T16:00:33.459Z,5.80
2017-12-30T16:03:01.064Z,20.20
2017-12-30T16:05:28.611Z,5.83
2017-12-30T16:07:56.204Z,15.10
2017-12-30T16:10:23.785Z,8.13
2017-12-30T16:12:51.329Z,3.87
2017-12-30T16:15:18.897Z,14.87
2017-12-30T16:17:46.492Z,9.80
2017-12-30T16:20:14.156Z,10.70
2017-12-30T16:22:41.751Z,18.20
2017-12-30T16:25:09.647Z,17.03
2017-12-30T16:27:37.211Z,7.77
2017-12-30T16:30:04.749Z,6.03
2017-12-30T16:32:32.360Z,11.70
2017-12-30T16:34:59.951Z,13.37
2017-12-30T16:37:27.522Z,11.87
2017-12-30T16:39:56.692Z,13.07
2017-12-30T16:42:24.326Z,12.20
2017-12-30T16:44:51.920Z,13.00
2017-12-30T16:47:19.482Z,19.93
2017-12-30T16:49:47.054Z,13.07
2017-12-30T16:52:14.625Z,6.13
2017-12-30T16:54:42.176Z,10.13
2017-12-30T16:57:10.003Z,2.80
2017-12-30T16:59:37.700Z,3.73
2017-12-30T17:02:05.232Z,2.57
2017-12-30T17:04:32.782Z,4.20
2017-12-30T17:07:00.561Z,3.40
2017-12-30T17:09:28.109Z,7.57
2017-12-30T17:11:55.654Z,22.53
2017-12-30T17:14:23.328Z,7.93
2017-12-30T17:16:50.881Z,6.13
2017-12-30T17:19:18.435Z,9.07
2017-12-30T17:21:46.030Z,3.20
2017-12-30T17:24:13.709Z,3.50
2017-12-30T17:26:41.245Z,5.93
2017-12-30T17:29:09.209Z,3.67
2017-12-30T17:31:36.851Z,5.40
2017-12-30T17:34:04.381Z,5.97
2017-12-30T17:36:31.994Z,4.57
2017-12-30T17:38:59.558Z,5.53
2017-12-30T17:41:27.138Z,6.57
2017-12-30T17:43:54.709Z,4.60
2017-12-30T17:46:22.298Z,8.53
2017-12-30T17:48:49.871Z,15.50
2017-12-30T17:51:17.435Z,14.73
2017-12-30T17:53:45.006Z,38.57
2017-12-30T17:56:12.665Z,13.63
2017-12-30T17:58:40.229Z,15.73
2017-12-30T18:01:07.784Z,9.80
2017-12-30T18:03:35.327Z,7.00
2017-12-30T18:06:17.587Z,7.67
2017-12-30T18:08:45.144Z,7.17
2017-12-30T18:11:12.673Z,6.27
2017-12-30T18:13:40.239Z,12.47
2017-12-30T18:16:07.771Z,9.00
2017-12-30T18:18:35.337Z,14.10
2017-12-30T18:21:02.879Z,14.07
2017-12-30T18:23:31.057Z,9.40
2017-12-30T18:25:58.601Z,9.57
2017-12-30T18:28:26.159Z,11.83
2017-12-30T18:30:53.736Z,10.80
2017-12-30T18:33:21.283Z,13.90
2017-12-30T18:35:48.805Z,6.47
2017-12-30T18:38:16.347Z,14.20
2017-12-30T18:40:43.884Z,9.43
2017-12-30T18:43:11.610Z,8.33
2017-12-30T18:45:39.143Z,7.97
2017-12-30T18:48:06.680Z,9.27
2017-12-30T18:50:34.232Z,6.57
2017-12-30T18:53:01.780Z,5.90
2017-12-30T18:55:29.437Z,9.00
2017-12-30T18:57:57.029Z,9.27
2017-12-30T19:00:24.584Z,11.47
2017-12-30T19:02:52.140Z,10.90
2017-12-30T19:05:19.953Z,15.53
2017-12-30T19:07:47.879Z,18.00
2017-12-30T19:10:15.478Z,9.70
2017-12-30T19:12:43.455Z,7.97
2017-12-30T19:15:11.047Z,8.70
2017-12-30T19:17:38.600Z,8.17
2017-12-30T19:20:06.188Z,7.33
2017-12-30T19:22:33.741Z,8.17
2017-12-30T19:25:02.010Z,8.40
2017-12-30T19:27:29.587Z,6.33
2017-12-30T19:29:57.137Z,10.50
2017-12-30T19:32:24.688Z,4.90
2017-12-30T19:34:52.282Z,8.90
2017-12-30T19:37:19.831Z,5.37
2017-12-30T19:39:47.402Z,6.00
2017-12-30T19:42:14.991Z,5.97
2017-12-30T19:44:43.237Z,39.70
2017-12-30T19:47:10.794Z,17.90
2017-12-30T19:49:38.357Z,12.67
2017-12-30T19:52:05.909Z,18.30
2017-12-30T19:54:33.513Z,18.80
2017-12-30T19:57:01.009Z,14.30
2017-12-30T19:59:28.563Z,20.23
2017-12-30T20:04:30.442Z,18.00
2017-12-30T20:06:58.015Z,33.30
2017-12-30T20:09:25.562Z,44.00
2017-12-30T20:11:53.120Z,141.53
2017-12-30T20:14:20.722Z,68.97
2017-12-30T20:16:48.267Z,29.47
2017-12-30T20:19:15.801Z,29.13
2017-12-30T20:21:43.393Z,28.80
2017-12-30T20:24:10.937Z,41.43
2017-12-30T20:26:38.495Z,34.33
2017-12-30T20:29:06.106Z,38.13
2017-12-30T20:31:33.665Z,44.10
2017-12-30T20:34:01.207Z,41.00
2017-12-30T20:36:28.828Z,39.43
2017-12-30T20:38:56.385Z,32.63
2017-12-30T20:41:23.932Z,30.50
2017-12-30T20:43:51.506Z,38.40
2017-12-30T20:46:19.043Z,50.30
2017-12-30T20:48:46.588Z,38.30
2017-12-30T20:51:14.136Z,30.07
2017-12-30T20:53:41.705Z,69.43
2017-12-30T20:56:09.251Z,46.13
2017-12-30T20:58:36.803Z,42.23
2017-12-30T21:01:04.378Z,85.03
2017-12-30T21:03:31.936Z,40.87
2017-12-30T21:05:59.489Z,37.70
2017-12-30T21:08:27.083Z,50.53
2017-12-30T21:10:54.628Z,52.47
2017-12-30T21:13:22.187Z,35.27
2017-12-30T21:15:49.739Z,33.30
2017-12-30T21:18:17.429Z,30.67
2017-12-30T21:20:44.977Z,87.80
2017-12-30T21:23:12.539Z,71.00
2017-12-30T21:25:40.281Z,62.90
2017-12-30T21:28:07.915Z,43.80
2017-12-30T21:30:35.468Z,39.00
2017-12-30T21:33:03.018Z,37.87
2017-12-30T21:35:31.608Z,31.30
2017-12-30T21:37:59.161Z,47.27
2017-12-30T21:40:26.756Z,46.33
2017-12-30T21:42:54.313Z,34.73
2017-12-30T21:45:21.894Z,39.60
2017-12-30T21:50:46.448Z,35.07
2017-12-30T21:53:13.989Z,27.53
2017-12-30T21:55:41.775Z,31.70
2017-12-30T21:58:09.354Z,28.40
2017-12-30T22:00:36.889Z,28.50
2017-12-30T22:03:04.506Z,55.03
2017-12-30T22:05:32.076Z,41.13
2017-12-30T22:07:59.620Z,146.37
2017-12-30T22:10:27.146Z,61.40
2017-12-30T22:12:54.725Z,36.80
2017-12-30T22:15:22.285Z,112.93
2017-12-30T22:17:49.825Z,198.37
2017-12-30T22:20:17.465Z,128.67
2017-12-30T22:22:45.012Z,77.27
2017-12-30T22:25:12.563Z,74.40
2017-12-30T22:27:40.140Z,41.30
2017-12-30T22:30:07.753Z,34.27
2017-12-30T22:32:35.293Z,28.43
2017-12-30T22:35:02.888Z,16.20
2017-12-30T22:37:30.460Z,22.70
2017-12-30T22:40:10.047Z,14.43
2017-12-30T22:42:37.684Z,15.73
2017-12-30T22:45:05.924Z,17.80
2017-12-30T22:47:33.489Z,17.23
2017-12-30T22:50:01.046Z,14.17
2017-12-30T22:52:28.647Z,14.00
2017-12-30T22:54:56.232Z,8.57
2017-12-30T22:57:23.768Z,9.53
2017-12-30T22:59:51.361Z,13.23
2017-12-30T23:02:18.981Z,12.43
2017-12-30T23:04:48.124Z,8.00
2017-12-30T23:07:15.894Z,12.03
2017-12-30T23:09:43.458Z,11.80
2017-12-30T23:12:11.024Z,8.17
2017-12-30T23:14:38.577Z,12.43
2017-12-30T23:17:06.361Z,47.47
2017-12-30T23:19:33.984Z,66.40
2017-12-30T23:22:01.542Z,6.10
2017-12-30T23:24:29.103Z,17.77
2017-12-30T23:26:56.727Z,14.93
2017-12-30T23:29:24.303Z,7.97
2017-12-30T23:31:51.844Z,7.80
2017-12-30T23:34:19.451Z,8.80
2017-12-30T23:36:47.005Z,11.97
2017-12-30T23:39:14.556Z,9.03
2017-12-30T23:41:42.168Z,11.47
2017-12-30T23:44:09.717Z,6.50
2017-12-30T23:46:37.312Z,6.37
2017-12-30T23:49:04.901Z,36.93
2017-12-30T23:51:32.516Z,22.63
2017-12-30T23:54:00.068Z,8.27
2017-12-30T23:56:27.621Z,6.50
2017-12-30T23:58:57.540Z,8.40
